Time;durP1;ratioP1;P1;durP2;ratioP2;P2;SDS_P1;SDS_P2;PMS_P1;PMS_P2;Temp;Humidity;BMP_temperature;BMP_pressure;BME280_temperature;BME280_humidity;BME280_pressure;Samples;Min_cycle;Max_cycle;Signal;HPM_P1;HPM_P2
2020/12/09 00:01:20;;;;;;;75.18;37.08;;;1.60;99.90;;;;;;5022585;28;20038;-44
2020/12/09 00:03:46;;;;;;;76.55;36.72;;;1.60;99.90;;;;;;5022545;28;20108;-45
2020/12/09 00:06:12;;;;;;;91.82;43.85;;;1.60;99.90;;;;;;5018153;28;20037;-42
2020/12/09 00:08:37;;;;;;;67.78;33.10;;;1.60;99.90;;;;;;5019615;28;20029;-42
2020/12/09 00:11:04;;;;;;;79.60;37.75;;;1.70;99.90;;;;;;5017268;28;20380;-46
2020/12/09 00:13:29;;;;;;;76.70;38.58;;;1.70;99.90;;;;;;5017982;28;20096;-44
2020/12/09 00:15:55;;;;;;;64.43;31.83;;;1.70;99.90;;;;;;5016758;28;20069;-42
2020/12/09 00:18:21;;;;;;;76.35;36.63;;;1.60;99.90;;;;;;5018054;28;20795;-45
2020/12/09 00:20:46;;;;;;;85.20;39.95;;;1.60;99.90;;;;;;5016948;28;20029;-44
2020/12/09 00:23:12;;;;;;;66.50;33.10;;;1.60;99.90;;;;;;5018338;28;20091;-43
2020/12/09 00:25:38;;;;;;;86.68;40.70;;;1.60;99.90;;;;;;5017559;28;20552;-44
2020/12/09 00:28:04;;;;;;;82.25;36.92;;;1.60;99.90;;;;;;5017449;28;20026;-44
2020/12/09 00:30:29;;;;;;;81.30;39.60;;;1.60;99.90;;;;;;5019540;28;20543;-44
2020/12/09 00:32:55;;;;;;;72.18;33.35;;;1.60;99.90;;;;;;5019606;28;20618;-42
2020/12/09 00:35:21;;;;;;;78.15;35.58;;;1.60;99.90;;;;;;5014810;28;20033;-45
2020/12/09 00:37:46;;;;;;;69.78;33.63;;;1.60;99.90;;;;;;5016496;28;20029;-41
2020/12/09 00:40:12;;;;;;;94.85;43.42;;;1.70;99.90;;;;;;5018718;28;20037;-42
2020/12/09 00:42:37;;;;;;;74.18;34.20;;;1.70;99.90;;;;;;5018103;28;20026;-44
2020/12/09 00:45:04;;;;;;;77.28;38.72;;;1.80;99.90;;;;;;5019272;28;20026;-43
2020/12/09 00:47:29;;;;;;;77.28;36.20;;;1.80;99.90;;;;;;5020635;28;20038;-42
2020/12/09 00:50:27;;;;;;;89.45;40.63;;;1.80;99.90;;;;;;5018796;28;20531;-42
2020/12/09 00:52:44;;;;;;;76.72;36.97;;;1.80;99.90;;;;;;5026171;28;20030;-43
2020/12/09 00:55:10;;;;;;;77.20;37.90;;;1.90;99.90;;;;;;5026379;28;20087;-45
2020/12/09 00:57:36;;;;;;;76.43;35.47;;;1.90;99.90;;;;;;5021859;28;20446;-41
2020/12/09 01:00:07;;;;;;;81.93;39.05;;;1.90;99.90;;;;;;5029108;28;20021;-44
2020/12/09 01:02:33;;;;;;;68.30;31.60;;;1.90;99.90;;;;;;5018493;28;20037;-42
2020/12/09 01:04:58;;;;;;;73.35;36.20;;;1.90;99.90;;;;;;5021351;28;20500;-44
2020/12/09 01:07:24;;;;;;;75.63;36.85;;;1.90;99.90;;;;;;5017725;28;20169;-45
2020/12/09 01:09:49;;;;;;;72.95;36.75;;;1.90;99.90;;;;;;5021717;28;20026;-41
2020/12/09 01:12:15;;;;;;;64.93;33.45;;;1.90;99.90;;;;;;5020138;28;20030;-44
2020/12/09 01:14:41;;;;;;;73.45;35.38;;;1.90;99.90;;;;;;5015298;28;20393;-42
2020/12/09 01:17:06;;;;;;;68.38;35.85;;;1.90;99.90;;;;;;5021428;28;20049;-43
2020/12/09 01:19:32;;;;;;;91.80;42.78;;;1.90;99.90;;;;;;5026654;28;20080;-42
2020/12/09 01:21:57;;;;;;;71.25;34.25;;;1.90;99.90;;;;;;5020795;28;20588;-43
2020/12/09 01:24:23;;;;;;;69.97;36.58;;;2.00;99.90;;;;;;5015996;28;20065;-44
2020/12/09 01:26:49;;;;;;;86.45;38.20;;;2.00;99.90;;;;;;5025989;28;20120;-41
2020/12/09 01:29:15;;;;;;;79.85;38.63;;;2.00;99.90;;;;;;5014954;28;20026;-45
2020/12/09 01:31:41;;;;;;;95.03;41.70;;;2.00;99.90;;;;;;5020113;28;20080;-52
2020/12/09 01:34:07;;;;;;;90.75;40.90;;;1.90;99.90;;;;;;5016499;28;20038;-47
2020/12/09 01:36:32;;;;;;;107.00;47.58;;;1.90;99.90;;;;;;5017500;28;20053;-48
2020/12/09 01:38:58;;;;;;;102.53;45.55;;;1.90;99.90;;;;;;5018407;28;20473;-47
2020/12/09 01:41:24;;;;;;;108.40;45.83;;;1.80;99.90;;;;;;5020888;28;20037;-49
2020/12/09 01:43:51;;;;;;;124.10;56.08;;;1.70;99.90;;;;;;5023200;28;20444;-49
2020/12/09 01:46:18;;;;;;;113.88;49.00;;;1.70;99.90;;;;;;5016383;28;20038;-48
2020/12/09 01:48:45;;;;;;;118.10;50.65;;;1.70;99.90;;;;;;5020891;28;20048;-47
2020/12/09 01:51:13;;;;;;;107.82;47.85;;;1.70;99.90;;;;;;5024401;28;20397;-46
2020/12/09 01:53:40;;;;;;;110.43;47.13;;;1.70;99.90;;;;;;5017472;28;20370;-46
2020/12/09 01:56:05;;;;;;;92.28;41.00;;;1.70;99.90;;;;;;5018183;28;20062;-45
2020/12/09 01:58:31;;;;;;;104.07;44.30;;;1.70;99.90;;;;;;5020126;28;20056;-46
2020/12/09 02:00:56;;;;;;;99.15;41.70;;;1.70;99.90;;;;;;5018073;28;20482;-44
2020/12/09 02:03:22;;;;;;;131.15;54.50;;;1.60;99.90;;;;;;5014035;28;20048;-45
2020/12/09 02:05:47;;;;;;;111.78;51.22;;;1.70;99.90;;;;;;5019381;28;20068;-47
2020/12/09 02:08:13;;;;;;;95.32;40.58;;;1.70;99.90;;;;;;5015045;28;20040;-45
2020/12/09 02:10:39;;;;;;;119.15;51.40;;;1.70;99.90;;;;;;5016275;28;20112;-45
2020/12/09 02:13:04;;;;;;;92.55;40.85;;;1.70;99.90;;;;;;5016372;28;20120;-45
2020/12/09 02:15:30;;;;;;;102.43;45.65;;;1.70;99.90;;;;;;5016358;28;20022;-45
2020/12/09 02:17:55;;;;;;;122.18;51.17;;;1.70;99.90;;;;;;5026743;28;20033;-42
2020/12/09 02:20:21;;;;;;;95.68;41.25;;;1.60;99.90;;;;;;5015361;28;20117;-45
2020/12/09 02:22:53;;;;;;;111.53;45.88;;;1.70;99.90;;;;;;5023965;28;20680;-47
2020/12/09 02:25:19;;;;;;;110.22;50.30;;;1.70;99.90;;;;;;5018031;28;20338;-45
2020/12/09 02:27:45;;;;;;;120.38;50.28;;;1.70;99.90;;;;;;5021141;28;20384;-45
2020/12/09 02:30:11;;;;;;;97.20;40.90;;;1.70;99.90;;;;;;5022852;28;20026;-47
2020/12/09 02:32:36;;;;;;;113.43;50.30;;;1.70;99.90;;;;;;5018735;28;20546;-48
2020/12/09 02:35:04;;;;;;;98.07;41.47;;;1.70;99.90;;;;;;5023288;28;20026;-45
2020/12/09 02:37:33;;;;;;;117.28;51.83;;;1.70;99.90;;;;;;5014662;28;20026;-46
2020/12/09 02:39:58;;;;;;;97.18;43.60;;;1.70;99.90;;;;;;5012376;28;20083;-47
2020/12/09 02:42:24;;;;;;;114.07;49.97;;;1.70;99.90;;;;;;5014706;28;20317;-46
2020/12/09 02:44:49;;;;;;;118.13;48.65;;;1.70;99.90;;;;;;5021728;28;20535;-48
2020/12/09 02:47:15;;;;;;;94.68;43.75;;;1.70;99.90;;;;;;5027601;28;20026;-45
2020/12/09 02:49:40;;;;;;;107.72;44.72;;;1.70;99.90;;;;;;5028695;28;20385;-44
2020/12/09 02:52:06;;;;;;;102.57;43.70;;;1.70;99.90;;;;;;5016090;28;20026;-44
2020/12/09 02:54:31;;;;;;;100.85;44.10;;;1.70;99.90;;;;;;5023433;28;20097;-45
2020/12/09 02:56:57;;;;;;;100.68;43.58;;;1.60;99.90;;;;;;5023278;28;20026;-45
2020/12/09 02:59:22;;;;;;;103.55;47.05;;;1.70;99.90;;;;;;5024791;28;20032;-47
2020/12/09 03:01:48;;;;;;;100.20;45.08;;;1.60;99.90;;;;;;5022992;28;20107;-45
2020/12/09 03:04:13;;;;;;;120.35;50.10;;;1.70;99.90;;;;;;5020893;28;20033;-44
2020/12/09 03:06:41;;;;;;;103.20;44.28;;;1.70;99.90;;;;;;5021527;28;20025;-43
2020/12/09 03:09:06;;;;;;;85.70;38.47;;;1.70;99.90;;;;;;5021231;28;20026;-43
2020/12/09 03:11:32;;;;;;;101.68;44.35;;;1.70;99.90;;;;;;5020852;28;20037;-44
2020/12/09 03:13:58;;;;;;;103.35;44.88;;;1.70;99.90;;;;;;5017646;28;20036;-44
2020/12/09 03:16:23;;;;;;;102.32;46.17;;;1.60;99.90;;;;;;5021814;28;20476;-44
2020/12/09 03:18:49;;;;;;;117.82;50.75;;;1.70;99.90;;;;;;5021432;28;20122;-45
2020/12/09 03:21:15;;;;;;;111.53;47.78;;;1.70;99.90;;;;;;5022228;28;20104;-44
2020/12/09 03:23:40;;;;;;;125.82;55.10;;;1.70;99.90;;;;;;5018380;28;20136;-43
2020/12/09 03:26:06;;;;;;;97.93;43.05;;;1.70;99.90;;;;;;5019617;28;20437;-43
2020/12/09 03:28:34;;;;;;;103.10;44.75;;;1.70;99.90;;;;;;5020205;28;20037;-44
2020/12/09 03:30:59;;;;;;;140.18;56.05;;;1.70;99.90;;;;;;5021206;28;20038;-46
2020/12/09 03:33:24;;;;;;;107.07;48.03;;;1.70;99.90;;;;;;5019289;28;20038;-43
2020/12/09 03:35:50;;;;;;;119.47;54.83;;;1.70;99.90;;;;;;5015854;28;20587;-44
2020/12/09 03:38:16;;;;;;;124.93;51.33;;;1.60;99.90;;;;;;5016025;28;20034;-46
2020/12/09 03:40:41;;;;;;;119.28;56.78;;;1.60;99.90;;;;;;5017963;28;20034;-47
2020/12/09 03:43:07;;;;;;;106.10;46.08;;;1.60;99.90;;;;;;5018492;28;20071;-45
2020/12/09 03:45:32;;;;;;;109.57;49.65;;;1.60;99.90;;;;;;5021590;28;20044;-44
2020/12/09 03:47:58;;;;;;;126.85;56.13;;;1.60;99.90;;;;;;5026370;28;20057;-45
2020/12/09 03:50:23;;;;;;;107.32;48.10;;;1.60;99.90;;;;;;5019028;28;20041;-42
2020/12/09 03:52:49;;;;;;;104.50;46.95;;;1.60;99.90;;;;;;5026296;28;20080;-45
2020/12/09 03:55:14;;;;;;;117.68;49.67;;;1.60;99.90;;;;;;5025152;28;20045;-49
2020/12/09 03:57:40;;;;;;;116.70;52.08;;;1.60;99.90;;;;;;5022338;28;20041;-47
2020/12/09 04:00:05;;;;;;;125.15;56.00;;;1.60;99.90;;;;;;5027659;28;20396;-47
2020/12/09 04:02:31;;;;;;;111.60;50.95;;;1.60;99.90;;;;;;5016977;28;20197;-49
2020/12/09 04:04:56;;;;;;;118.00;51.75;;;1.60;99.90;;;;;;5020308;28;20033;-45
2020/12/09 04:07:22;;;;;;;90.63;40.97;;;1.60;99.90;;;;;;5019608;28;20073;-44
2020/12/09 04:09:47;;;;;;;122.38;54.22;;;1.60;99.90;;;;;;5019955;28;20098;-47
2020/12/09 04:12:13;;;;;;;120.57;53.22;;;1.60;99.90;;;;;;5020181;28;20033;-45
2020/12/09 04:14:38;;;;;;;121.30;53.53;;;1.60;99.90;;;;;;5016998;28;20578;-43
2020/12/09 04:17:04;;;;;;;112.15;51.22;;;1.60;99.90;;;;;;5022401;28;20056;-44
2020/12/09 04:19:29;;;;;;;96.85;42.42;;;1.60;99.90;;;;;;5028032;28;20544;-46
2020/12/09 04:21:54;;;;;;;102.90;47.72;;;1.60;99.90;;;;;;5020548;28;20026;-45
2020/12/09 04:24:20;;;;;;;91.93;41.15;;;1.60;99.90;;;;;;5015941;28;20369;-43
2020/12/09 04:26:45;;;;;;;117.90;54.47;;;1.60;99.90;;;;;;5021664;28;20499;-44
2020/12/09 04:29:11;;;;;;;105.32;45.78;;;1.60;99.90;;;;;;5021479;28;20037;-44
2020/12/09 04:31:37;;;;;;;103.57;48.30;;;1.60;99.90;;;;;;5025572;28;20056;-43
2020/12/09 04:34:04;;;;;;;95.07;44.22;;;1.60;99.90;;;;;;5018267;28;20029;-45
2020/12/09 04:36:29;;;;;;;116.75;48.42;;;1.60;99.90;;;;;;5017514;28;20465;-44
2020/12/09 04:38:56;;;;;;;105.88;46.33;;;1.60;99.90;;;;;;5018338;28;20033;-42
2020/12/09 04:41:22;;;;;;;97.93;45.13;;;1.60;99.90;;;;;;5018167;28;21010;-44
2020/12/09 04:43:47;;;;;;;100.75;46.63;;;1.60;99.90;;;;;;5021357;28;20026;-42
2020/12/09 04:46:13;;;;;;;96.32;43.63;;;1.60;99.90;;;;;;5024488;28;20076;-44
2020/12/09 04:48:56;;;;;;;114.88;49.67;;;1.50;99.90;;;;;;5018256;28;20153;-44
2020/12/09 04:51:40;;;;;;;99.18;45.10;;;1.50;99.90;;;;;;5017628;28;20030;-43
2020/12/09 04:54:14;;;;;;;85.68;40.78;;;1.50;99.90;;;;;;5017033;28;20037;-45
2020/12/09 04:56:53;;;;;;;115.03;52.45;;;1.60;99.90;;;;;;5019821;28;20032;-43
2020/12/09 04:59:23;;;;;;;121.85;55.65;;;1.50;99.90;;;;;;5015574;28;20100;-42
2020/12/09 05:02:03;;;;;;;110.97;50.78;;;1.60;99.90;;;;;;5015890;28;20068;-42
2020/12/09 05:04:32;;;;;;;102.93;44.78;;;1.50;99.90;;;;;;5019392;28;20045;-44
2020/12/09 05:07:09;;;;;;;105.85;50.83;;;1.50;99.90;;;;;;5015153;28;20060;-43
2020/12/09 05:09:45;;;;;;;94.97;44.35;;;1.50;99.90;;;;;;5016793;28;20038;-47
2020/12/09 05:12:13;;;;;;;106.32;48.20;;;1.50;99.90;;;;;;5017232;28;20493;-47
2020/12/09 05:14:47;;;;;;;97.75;45.28;;;1.50;99.90;;;;;;5019300;28;20026;-42
2020/12/09 05:17:18;;;;;;;90.85;43.45;;;1.50;99.90;;;;;;5025828;28;20519;-44
2020/12/09 05:19:46;;;;;;;93.82;43.13;;;1.50;99.90;;;;;;5019040;28;20025;-47
2020/12/09 05:22:22;;;;;;;101.15;46.80;;;1.50;99.90;;;;;;5025481;28;20152;-45
2020/12/09 05:24:49;;;;;;;89.88;42.88;;;1.60;99.90;;;;;;5017376;28;20347;-43
2020/12/09 05:27:15;;;;;;;104.00;46.42;;;1.50;99.90;;;;;;5020608;28;20036;-43
2020/12/09 05:29:48;;;;;;;86.88;41.03;;;1.50;99.90;;;;;;5029039;28;20033;-45
2020/12/09 05:32:14;;;;;;;103.20;46.05;;;1.50;99.90;;;;;;5019958;28;20501;-44
2020/12/09 05:34:40;;;;;;;91.05;44.50;;;1.50;99.90;;;;;;5025736;28;20103;-43
2020/12/09 05:37:07;;;;;;;83.30;38.63;;;1.50;99.90;;;;;;5026054;28;20026;-43
2020/12/09 05:39:34;;;;;;;96.80;44.67;;;1.50;99.90;;;;;;5028027;28;20029;-47
2020/12/09 05:42:14;;;;;;;98.07;47.53;;;1.50;99.90;;;;;;5026340;28;20021;-45
2020/12/09 05:44:41;;;;;;;84.68;40.00;;;1.60;99.90;;;;;;5020961;28;20040;-46
2020/12/09 05:47:07;;;;;;;97.28;44.15;;;1.50;99.90;;;;;;5021751;28;20069;-42
2020/12/09 05:49:37;;;;;;;81.40;37.78;;;1.50;99.90;;;;;;5014916;28;20070;-44
2020/12/09 05:52:11;;;;;;;89.25;39.63;;;1.50;99.90;;;;;;5019085;28;20481;-45
2020/12/09 05:54:41;;;;;;;96.35;42.22;;;1.50;99.90;;;;;;5015454;28;20032;-42
2020/12/09 05:57:08;;;;;;;94.72;43.78;;;1.60;99.90;;;;;;5021429;28;20842;-45
2020/12/09 05:59:38;;;;;;;100.07;44.60;;;1.50;99.90;;;;;;5019933;28;20373;-44
2020/12/09 06:02:12;;;;;;;98.85;46.03;;;1.50;99.90;;;;;;5023446;28;20021;-47
2020/12/09 06:04:55;;;;;;;116.13;52.10;;;1.50;99.90;;;;;;5022088;28;20021;-47
2020/12/09 06:07:23;;;;;;;98.25;46.95;;;1.50;99.90;;;;;;5018529;28;20026;-45
2020/12/09 06:10:04;;;;;;;92.90;42.25;;;1.50;99.90;;;;;;5016805;28;20076;-45
2020/12/09 06:12:47;;;;;;;90.82;42.72;;;1.60;99.90;;;;;;5021654;28;20033;-48
2020/12/09 06:15:14;;;;;;;77.45;37.55;;;1.50;99.90;;;;;;5018640;28;20543;-45
2020/12/09 06:17:40;;;;;;;91.20;44.08;;;1.50;99.90;;;;;;5019696;28;20381;-50
2020/12/09 06:20:05;;;;;;;102.28;45.67;;;1.50;99.90;;;;;;5022106;28;20033;-48
2020/12/09 06:22:34;;;;;;;87.95;42.97;;;1.50;99.90;;;;;;5018771;28;20085;-48
2020/12/09 06:25:04;;;;;;;95.30;44.03;;;1.50;99.90;;;;;;5023380;28;20160;-50
2020/12/09 06:27:32;;;;;;;89.28;40.45;;;1.50;99.90;;;;;;5021713;28;20033;-48
2020/12/09 06:29:58;;;;;;;97.32;45.80;;;1.50;99.90;;;;;;5023398;28;20033;-44
2020/12/09 06:32:24;;;;;;;94.53;44.20;;;1.50;99.90;;;;;;5023729;28;20387;-47
2020/12/09 06:35:09;;;;;;;84.35;38.00;;;1.50;99.90;;;;;;5021185;28;20034;-46
2020/12/09 06:37:35;;;;;;;85.50;38.13;;;1.50;99.90;;;;;;5020141;28;20041;-43
2020/12/09 06:40:10;;;;;;;113.70;50.10;;;1.50;99.90;;;;;;5020843;28;20045;-45
2020/12/09 06:42:35;;;;;;;109.65;48.85;;;1.60;99.90;;;;;;5019348;28;20022;-44
2020/12/09 06:45:02;;;;;;;89.43;44.13;;;1.60;99.90;;;;;;5027952;28;20144;-46
2020/12/09 06:47:28;;;;;;;110.32;50.00;;;1.50;99.90;;;;;;5026134;28;20113;-47
2020/12/09 06:49:55;;;;;;;97.57;44.25;;;1.50;99.90;;;;;;5026042;28;20476;-44
2020/12/09 06:52:31;;;;;;;99.15;46.63;;;1.50;99.90;;;;;;5028106;28;20038;-45
2020/12/09 06:54:58;;;;;;;112.47;49.28;;;1.50;99.90;;;;;;5018869;28;20059;-46
2020/12/09 06:57:35;;;;;;;95.97;45.30;;;1.40;99.90;;;;;;5025816;28;20033;-46
2020/12/09 07:00:18;;;;;;;93.88;43.65;;;1.40;99.90;;;;;;5027362;28;20041;-45
2020/12/09 07:02:49;;;;;;;100.97;44.90;;;1.40;99.90;;;;;;5022564;28;20132;-45
2020/12/09 07:05:25;;;;;;;94.80;47.17;;;1.40;99.90;;;;;;5022653;28;20034;-43
2020/12/09 07:07:51;;;;;;;91.57;41.45;;;1.40;99.90;;;;;;5019263;28;20029;-44
2020/12/09 07:10:25;;;;;;;94.00;42.83;;;1.30;99.90;;;;;;5017659;28;20072;-44
2020/12/09 07:13:11;;;;;;;98.32;43.88;;;1.30;99.90;;;;;;5017124;28;20026;-44
2020/12/09 07:15:39;;;;;;;96.75;46.88;;;1.40;99.90;;;;;;5023338;28;20034;-44
2020/12/09 07:18:06;;;;;;;102.22;48.05;;;1.30;99.90;;;;;;5023555;28;20386;-45
2020/12/09 07:20:33;;;;;;;96.80;45.10;;;1.30;99.90;;;;;;5019701;28;20107;-47
2020/12/09 07:22:59;;;;;;;101.97;45.60;;;1.30;99.90;;;;;;5025588;28;20115;-45
2020/12/09 07:25:26;;;;;;;98.25;46.42;;;1.30;99.90;;;;;;5024860;28;20037;-47
2020/12/09 07:27:52;;;;;;;100.38;48.22;;;1.30;99.90;;;;;;5026473;28;20560;-46
2020/12/09 07:30:19;;;;;;;95.60;47.55;;;1.20;99.90;;;;;;5025802;28;20034;-49
2020/12/09 07:32:46;;;;;;;100.50;47.03;;;1.20;99.90;;;;;;5023938;28;20025;-46
2020/12/09 07:35:14;;;;;;;93.03;44.75;;;1.30;99.90;;;;;;5019494;28;20273;-44
2020/12/09 07:37:45;;;;;;;93.85;45.38;;;1.30;99.90;;;;;;5022208;28;20022;-44
2020/12/09 07:40:16;;;;;;;98.75;44.40;;;1.20;99.90;;;;;;5028233;28;20473;-46
2020/12/09 07:42:42;;;;;;;107.05;49.00;;;1.20;99.90;;;;;;5019558;28;20121;-46
2020/12/09 07:45:12;;;;;;;99.22;47.72;;;1.30;99.90;;;;;;5019584;28;20038;-44
2020/12/09 07:47:38;;;;;;;85.85;40.92;;;1.30;99.90;;;;;;5014256;28;20044;-45
2020/12/09 07:50:06;;;;;;;99.38;45.10;;;1.30;99.90;;;;;;5016974;28;20026;-47
2020/12/09 07:52:37;;;;;;;98.40;45.05;;;1.30;99.90;;;;;;5020100;28;20053;-47
2020/12/09 07:55:07;;;;;;;87.05;43.22;;;1.40;99.90;;;;;;5019508;28;20533;-47
2020/12/09 07:57:37;;;;;;;84.40;41.28;;;1.30;99.90;;;;;;5022031;28;20059;-45
2020/12/09 08:00:09;;;;;;;94.20;45.63;;;1.30;99.90;;;;;;5016535;28;20256;-49
2020/12/09 08:02:36;;;;;;;80.13;38.50;;;1.30;99.90;;;;;;5018553;28;20037;-48
2020/12/09 08:05:07;;;;;;;92.05;41.95;;;1.30;99.90;;;;;;5025878;28;21141;-43
2020/12/09 08:07:32;;;;;;;94.90;44.30;;;1.30;99.90;;;;;;5018470;28;20033;-45
2020/12/09 08:10:11;;;;;;;78.72;38.75;;;1.30;99.90;;;;;;5019799;28;20032;-43
2020/12/09 08:12:37;;;;;;;86.40;40.20;;;1.30;99.90;;;;;;5019006;28;20036;-47
2020/12/09 08:15:04;;;;;;;85.03;39.83;;;1.40;99.90;;;;;;5026560;28;20034;-43
2020/12/09 08:17:30;;;;;;;84.43;41.03;;;1.40;99.90;;;;;;5028617;28;20033;-46
2020/12/09 08:20:07;;;;;;;91.15;44.85;;;1.40;99.90;;;;;;5024055;28;20037;-47
2020/12/09 08:22:52;;;;;;;87.03;44.00;;;1.40;99.90;;;;;;5022594;28;20449;-43
2020/12/09 08:25:17;;;;;;;88.35;40.05;;;1.40;99.90;;;;;;5023714;28;20100;-47
2020/12/09 08:27:45;;;;;;;88.07;43.17;;;1.40;99.90;;;;;;5029582;28;20176;-47
2020/12/09 08:30:24;;;;;;;99.22;44.78;;;1.40;99.90;;;;;;5016203;28;20029;-47
2020/12/09 08:33:15;;;;;;;86.93;40.13;;;1.50;99.90;;;;;;5031078;28;20037;-49
2020/12/09 08:35:47;;;;;;;88.40;41.10;;;1.50;99.90;;;;;;5017862;28;20025;-51
2020/12/09 08:38:27;;;;;;;84.72;41.97;;;1.50;99.90;;;;;;5022818;28;20572;-47
2020/12/09 08:40:59;;;;;;;105.32;49.58;;;1.50;99.90;;;;;;5018513;28;20065;-50
2020/12/09 08:43:32;;;;;;;82.82;38.50;;;1.60;99.90;;;;;;5025949;28;20460;-48
2020/12/09 08:45:58;;;;;;;93.70;45.97;;;1.60;99.90;;;;;;5023477;28;20037;-46
2020/12/09 08:48:42;;;;;;;84.28;42.50;;;1.60;99.90;;;;;;5025750;28;20401;-48
2020/12/09 08:51:08;;;;;;;103.82;48.55;;;1.60;99.90;;;;;;5022283;28;20108;-47
2020/12/09 08:53:34;;;;;;;81.47;40.22;;;1.60;99.90;;;;;;5015822;28;20425;-44
2020/12/09 08:56:00;;;;;;;96.57;48.70;;;1.70;99.90;;;;;;5021389;28;20084;-44
2020/12/09 08:58:26;;;;;;;89.30;44.40;;;1.60;99.90;;;;;;5022188;28;20559;-46
2020/12/09 09:00:52;;;;;;;90.03;43.17;;;1.60;99.90;;;;;;5029608;28;20063;-44
2020/12/09 09:03:21;;;;;;;90.78;43.20;;;1.70;99.90;;;;;;5025293;28;20411;-47
2020/12/09 09:05:52;;;;;;;86.10;41.05;;;1.70;99.90;;;;;;5027692;28;20108;-46
2020/12/09 09:08:18;;;;;;;90.38;45.05;;;1.70;99.90;;;;;;5016024;28;20037;-45
2020/12/09 09:10:44;;;;;;;100.10;48.70;;;1.80;99.90;;;;;;5021562;28;20030;-45
2020/12/09 09:13:11;;;;;;;106.68;46.33;;;1.80;99.90;;;;;;5021479;28;20033;-49
2020/12/09 09:15:38;;;;;;;89.72;43.78;;;1.80;99.90;;;;;;5016653;28;20018;-45
2020/12/09 09:18:05;;;;;;;94.55;44.80;;;1.80;99.90;;;;;;5019360;28;20022;-49
2020/12/09 09:20:32;;;;;;;92.70;42.92;;;1.80;99.90;;;;;;5016377;28;20030;-49
2020/12/09 09:22:57;;;;;;;83.60;40.00;;;1.80;99.90;;;;;;5017798;28;20132;-42
2020/12/09 09:25:23;;;;;;;77.50;37.28;;;1.80;99.90;;;;;;5013965;28;20455;-48
2020/12/09 09:27:50;;;;;;;97.68;46.50;;;1.90;99.90;;;;;;5016843;28;20420;-46
2020/12/09 09:30:17;;;;;;;83.13;39.30;;;1.90;99.90;;;;;;5018576;28;20382;-48
2020/12/09 09:32:43;;;;;;;78.28;37.80;;;1.90;99.90;;;;;;5017948;28;20029;-48
2020/12/09 09:35:09;;;;;;;101.43;48.47;;;1.90;99.90;;;;;;5013737;28;20493;-46
2020/12/09 09:37:34;;;;;;;88.63;41.30;;;1.90;99.90;;;;;;5017006;28;20022;-45
2020/12/09 09:40:00;;;;;;;106.78;48.10;;;1.90;99.90;;;;;;5015586;28;20117;-46
2020/12/09 09:42:26;;;;;;;91.47;43.30;;;2.00;99.90;;;;;;5015812;28;20021;-47
2020/12/09 09:44:52;;;;;;;86.10;42.63;;;2.00;99.90;;;;;;5026827;28;20065;-44
2020/12/09 09:47:18;;;;;;;96.13;46.30;;;2.10;99.90;;;;;;5024405;28;20053;-46
2020/12/09 09:49:43;;;;;;;88.00;44.38;;;2.10;99.90;;;;;;5025387;28;20021;-44
2020/12/09 09:52:09;;;;;;;96.25;44.15;;;2.20;99.90;;;;;;5020593;28;20036;-47
2020/12/09 09:54:35;;;;;;;90.22;43.60;;;2.20;99.90;;;;;;5024599;28;20029;-49
2020/12/09 09:57:01;;;;;;;73.40;38.88;;;2.30;99.90;;;;;;5030760;28;20105;-46
2020/12/09 09:59:26;;;;;;;90.43;45.38;;;2.30;99.90;;;;;;5013877;28;20097;-45
2020/12/09 10:01:52;;;;;;;84.72;41.90;;;2.30;99.90;;;;;;5017694;28;20041;-43
2020/12/09 10:04:19;;;;;;;91.70;44.38;;;2.40;99.90;;;;;;5020043;28;20484;-49
2020/12/09 10:06:45;;;;;;;91.88;45.25;;;2.50;99.90;;;;;;5020286;28;20056;-46
2020/12/09 10:09:10;;;;;;;91.43;39.72;;;2.50;99.90;;;;;;5021332;28;20053;-43
2020/12/09 10:11:37;;;;;;;77.50;37.35;;;2.40;99.90;;;;;;5021553;28;20045;-47
2020/12/09 10:14:07;;;;;;;85.65;40.88;;;2.40;99.90;;;;;;5019198;28;20021;-49
2020/12/09 10:16:34;;;;;;;74.00;36.03;;;2.40;99.90;;;;;;5023023;28;20049;-50
2020/12/09 10:19:00;;;;;;;78.40;37.45;;;2.50;99.90;;;;;;5028914;28;20021;-49
2020/12/09 10:21:31;;;;;;;76.47;36.78;;;2.50;99.90;;;;;;5024524;28;20180;-50
2020/12/09 10:23:58;;;;;;;91.22;43.10;;;2.50;99.90;;;;;;5031253;28;20051;-47
2020/12/09 10:26:32;;;;;;;86.25;42.08;;;2.40;99.90;;;;;;5030332;28;20026;-46
2020/12/09 10:29:01;;;;;;;88.47;41.92;;;2.40;99.90;;;;;;5024348;28;20486;-45
2020/12/09 10:31:41;;;;;;;73.68;36.05;;;2.40;99.90;;;;;;5020237;28;20085;-44
2020/12/09 10:34:09;;;;;;;90.43;39.30;;;2.50;99.90;;;;;;5028332;28;20036;-46
2020/12/09 10:36:35;;;;;;;88.95;43.33;;;2.50;99.90;;;;;;5014408;28;20033;-47
2020/12/09 10:39:02;;;;;;;79.82;40.40;;;2.60;99.90;;;;;;5017598;28;20097;-47
2020/12/09 10:41:27;;;;;;;80.15;41.63;;;2.50;99.90;;;;;;5022553;28;20579;-46
2020/12/09 10:43:54;;;;;;;82.85;41.33;;;2.50;99.90;;;;;;5017220;28;20109;-45
2020/12/09 10:46:20;;;;;;;85.50;39.55;;;2.60;99.90;;;;;;5020015;28;20033;-46
2020/12/09 10:48:47;;;;;;;86.03;41.25;;;2.50;99.90;;;;;;5016032;28;20487;-44
2020/12/09 10:51:14;;;;;;;82.90;41.13;;;2.60;99.90;;;;;;5015437;28;20064;-50
2020/12/09 10:53:39;;;;;;;73.15;35.40;;;2.60;99.90;;;;;;5015741;28;20162;-52
2020/12/09 10:56:05;;;;;;;80.57;38.85;;;2.60;99.90;;;;;;5018278;28;20508;-51
2020/12/09 10:58:31;;;;;;;81.93;39.08;;;2.60;99.90;;;;;;5016239;28;20174;-48
2020/12/09 11:00:56;;;;;;;84.22;39.58;;;2.60;99.90;;;;;;5013677;28;20030;-51
2020/12/09 11:03:23;;;;;;;85.30;40.63;;;2.70;99.90;;;;;;5020804;28;20065;-46
2020/12/09 11:05:49;;;;;;;75.57;38.22;;;2.70;99.90;;;;;;5017385;28;20481;-49
2020/12/09 11:08:15;;;;;;;88.00;41.15;;;2.70;99.90;;;;;;5018617;28;20097;-47
2020/12/09 11:10:41;;;;;;;80.15;40.47;;;2.60;99.90;;;;;;5019511;28;20040;-48
2020/12/09 11:13:06;;;;;;;89.70;41.13;;;2.60;99.90;;;;;;5025965;28;20509;-45
2020/12/09 11:15:32;;;;;;;77.90;36.80;;;2.60;99.90;;;;;;5021279;28;20033;-43
2020/12/09 11:17:58;;;;;;;79.88;37.80;;;2.60;99.90;;;;;;5025958;28;20424;-45
2020/12/09 11:20:23;;;;;;;75.60;36.50;;;2.50;99.90;;;;;;5023381;28;20041;-48
2020/12/09 11:22:49;;;;;;;83.60;37.95;;;2.60;99.90;;;;;;5021023;28;20049;-46
2020/12/09 11:25:14;;;;;;;84.78;39.70;;;2.50;99.90;;;;;;5026193;28;20477;-49
2020/12/09 11:27:40;;;;;;;81.78;37.22;;;2.50;99.90;;;;;;5025318;28;20053;-43
2020/12/09 11:30:05;;;;;;;75.15;38.20;;;2.60;99.90;;;;;;5021452;28;20339;-47
2020/12/09 11:32:34;;;;;;;78.18;38.38;;;2.60;99.90;;;;;;5022165;28;20038;-44
2020/12/09 11:35:00;;;;;;;87.38;41.15;;;2.60;99.90;;;;;;5020362;28;20030;-45
2020/12/09 11:37:26;;;;;;;80.40;38.97;;;2.60;99.90;;;;;;5020819;28;20528;-44
2020/12/09 11:39:51;;;;;;;83.40;38.58;;;2.60;99.90;;;;;;5023380;28;20033;-47
2020/12/09 11:42:17;;;;;;;86.53;41.17;;;2.60;99.90;;;;;;5018037;28;20038;-50
2020/12/09 11:44:42;;;;;;;79.30;35.45;;;2.60;99.90;;;;;;5018649;28;20433;-43
2020/12/09 11:47:09;;;;;;;72.07;34.63;;;2.60;99.90;;;;;;5023289;28;20109;-45
2020/12/09 11:49:34;;;;;;;74.93;36.17;;;2.70;99.90;;;;;;5020604;28;20392;-45
2020/12/09 11:52:00;;;;;;;74.63;37.38;;;2.70;99.90;;;;;;5023261;28;20038;-45
2020/12/09 11:54:25;;;;;;;81.22;39.75;;;2.70;99.90;;;;;;5019631;28;20728;-42
2020/12/09 11:56:50;;;;;;;77.50;35.65;;;2.70;99.90;;;;;;5020635;28;20045;-43
2020/12/09 11:59:16;;;;;;;81.95;37.33;;;2.80;99.90;;;;;;5017283;28;20113;-45
2020/12/09 12:01:41;;;;;;;78.93;37.67;;;2.70;99.90;;;;;;5018551;28;20096;-46
2020/12/09 12:04:07;;;;;;;73.63;34.63;;;2.70;99.90;;;;;;5018289;28;20034;-51
2020/12/09 12:06:32;;;;;;;82.28;36.25;;;2.80;99.90;;;;;;5021668;28;20365;-50
2020/12/09 12:08:58;;;;;;;79.60;35.63;;;2.80;99.90;;;;;;5018242;28;20042;-44
2020/12/09 12:11:26;;;;;;;74.65;35.75;;;2.80;99.90;;;;;;5016197;28;20039;-50
2020/12/09 12:13:52;;;;;;;70.63;30.25;;;2.90;99.90;;;;;;5019491;28;20024;-46
2020/12/09 12:16:20;;;;;;;82.07;37.03;;;2.90;99.90;;;;;;5021165;28;20021;-47
2020/12/09 12:18:46;;;;;;;75.25;35.50;;;2.80;99.90;;;;;;5019187;28;20054;-45
2020/12/09 12:21:16;;;;;;;77.75;36.22;;;2.80;99.90;;;;;;5017672;28;20432;-45
2020/12/09 12:23:42;;;;;;;73.43;36.58;;;2.70;99.90;;;;;;5014741;28;20060;-46
2020/12/09 12:26:08;;;;;;;82.05;37.47;;;2.70;99.90;;;;;;5021493;28;20104;-49
2020/12/09 12:28:34;;;;;;;75.63;34.78;;;2.70;99.90;;;;;;5020474;28;20072;-46
2020/12/09 12:31:00;;;;;;;76.00;34.45;;;2.70;99.90;;;;;;5019891;28;20025;-48
2020/12/09 12:33:26;;;;;;;78.10;37.65;;;2.70;99.90;;;;;;5024809;28;20117;-47
2020/12/09 12:35:51;;;;;;;70.47;32.58;;;2.60;99.90;;;;;;5016621;28;20504;-49